Time;durP1;ratioP1;P1;durP2;ratioP2;P2;SDS_P1;SDS_P2;PMS_P1;PMS_P2;Temp;Humidity;BMP_temperature;BMP_pressure;BME280_temperature;BME280_humidity;BME280_pressure;Samples;Min_cycle;Max_cycle;Signal;HPM_P1;HPM_P2
2024/01/26 00:02:04;;;;;;;85.30;11.82;;;;;;;;;;6245302;22;20016;-80
2024/01/26 00:04:31;;;;;;;79.28;10.75;;;;;;;;;;6245828;22;20024;-79
2024/01/26 00:06:58;;;;;;;80.85;11.18;;;;;;;;;;6245685;22;20361;-79
2024/01/26 00:09:25;;;;;;;78.38;11.60;;;;;;;;;;6244612;22;20027;-78
2024/01/26 00:11:52;;;;;;;62.15;11.02;;;;;;;;;;6245485;22;20079;-78
2024/01/26 00:14:19;;;;;;;81.28;10.93;;;;;;;;;;6268791;22;20012;-80
2024/01/26 00:16:46;;;;;;;93.00;11.32;;;;;;;;;;6245794;22;20023;-80
2024/01/26 00:19:12;;;;;;;67.80;10.18;;;;;;;;;;6245020;22;20012;-80
2024/01/26 00:21:39;;;;;;;54.78;10.00;;;;;;;;;;6245607;22;20027;-79
2024/01/26 00:24:07;;;;;;;61.58;9.32;;;;;;;;;;6268992;22;20012;-81
2024/01/26 00:26:33;;;;;;;62.22;9.10;;;;;;;;;;6244441;23;20345;-81
2024/01/26 00:29:00;;;;;;;53.85;9.07;;;;;;;;;;6246305;23;20016;-79
2024/01/26 00:31:27;;;;;;;69.22;10.57;;;;;;;;;;6246201;22;20453;-80
2024/01/26 00:33:54;;;;;;;84.68;11.45;;;;;;;;;;6245868;22;20449;-80
2024/01/26 00:36:21;;;;;;;75.88;10.13;;;;;;;;;;6245379;22;20073;-80
2024/01/26 00:38:48;;;;;;;67.13;11.13;;;;;;;;;;6246833;23;20400;-80
2024/01/26 00:41:15;;;;;;;67.05;10.48;;;;;;;;;;6245699;22;20595;-79
2024/01/26 00:43:42;;;;;;;79.35;12.10;;;;;;;;;;6246395;22;20020;-79
2024/01/26 00:46:09;;;;;;;82.13;11.95;;;;;;;;;;6244004;22;20012;-80
2024/01/26 00:48:35;;;;;;;84.47;11.13;;;;;;;;;;6246704;22;20013;-80
2024/01/26 00:51:06;;;;;;;88.10;11.52;;;;;;;;;;6245812;22;20437;-79
2024/01/26 00:53:33;;;;;;;87.72;12.52;;;;;;;;;;6243977;23;20020;-80
2024/01/26 00:56:00;;;;;;;78.30;12.45;;;;;;;;;;6245396;22;20043;-80
2024/01/26 00:58:26;;;;;;;80.20;12.85;;;;;;;;;;6244754;22;20025;-80
2024/01/26 01:00:53;;;;;;;81.38;10.80;;;;;;;;;;6245551;22;20016;-79
2024/01/26 01:03:20;;;;;;;88.13;11.63;;;;;;;;;;6244755;22;20522;-80
2024/01/26 01:05:47;;;;;;;90.20;12.07;;;;;;;;;;6245478;22;20024;-80
2024/01/26 01:08:13;;;;;;;84.45;10.90;;;;;;;;;;6244726;22;20438;-79
2024/01/26 01:10:40;;;;;;;81.72;11.40;;;;;;;;;;6245298;22;20027;-80
2024/01/26 01:13:10;;;;;;;102.60;13.30;;;;;;;;;;6268825;22;20020;-80
2024/01/26 01:15:40;;;;;;;88.68;12.40;;;;;;;;;;6245151;22;20464;-80
2024/01/26 01:18:07;;;;;;;79.30;11.77;;;;;;;;;;6245015;22;20023;-80
2024/01/26 01:20:34;;;;;;;99.22;12.55;;;;;;;;;;6245703;22;20024;-79
2024/01/26 01:23:02;;;;;;;95.60;13.02;;;;;;;;;;6247223;22;20444;-80
2024/01/26 01:25:29;;;;;;;78.10;11.45;;;;;;;;;;6247012;22;20078;-79
2024/01/26 01:27:55;;;;;;;70.22;10.45;;;;;;;;;;6247194;22;20020;-80
2024/01/26 01:30:22;;;;;;;71.63;10.80;;;;;;;;;;6246413;22;20024;-80
2024/01/26 01:32:49;;;;;;;65.60;9.75;;;;;;;;;;6247296;22;20437;-79
2024/01/26 01:35:16;;;;;;;58.35;10.02;;;;;;;;;;6244994;22;20019;-80
2024/01/26 01:37:43;;;;;;;53.35;8.40;;;;;;;;;;6247117;22;20023;-78
2024/01/26 01:40:10;;;;;;;42.90;6.80;;;;;;;;;;6246666;22;20016;-80
2024/01/26 01:42:37;;;;;;;44.92;7.32;;;;;;;;;;6247061;22;20020;-79
2024/01/26 01:45:14;;;;;;;30.65;5.70;;;;;;;;;;6246678;22;20039;-80
2024/01/26 01:47:42;;;;;;;34.97;6.37;;;;;;;;;;6246797;22;20095;-79
2024/01/26 01:50:10;;;;;;;30.35;5.90;;;;;;;;;;6246330;22;20263;-79
2024/01/26 01:52:41;;;;;;;24.85;5.28;;;;;;;;;;6247090;22;20062;-80
2024/01/26 01:55:10;;;;;;;28.45;4.97;;;;;;;;;;6246537;22;20043;-80
2024/01/26 01:57:41;;;;;;;14.70;3.40;;;;;;;;;;6246908;22;20022;-80
2024/01/26 02:00:15;;;;;;;14.65;3.08;;;;;;;;;;6246562;22;20012;-80
2024/01/26 02:02:47;;;;;;;13.07;3.13;;;;;;;;;;6246124;22;20020;-79
2024/01/26 02:05:15;;;;;;;12.95;3.08;;;;;;;;;;6246370;22;20016;-79
2024/01/26 02:07:50;;;;;;;12.10;2.90;;;;;;;;;;6246907;22;20372;-80
2024/01/26 02:10:18;;;;;;;12.30;2.88;;;;;;;;;;6246233;22;20460;-80
2024/01/26 02:12:45;;;;;;;11.07;2.67;;;;;;;;;;6246886;22;20078;-80
2024/01/26 02:15:11;;;;;;;9.68;2.65;;;;;;;;;;6246053;22;20012;-79
2024/01/26 02:17:39;;;;;;;7.95;2.97;;;;;;;;;;6246791;22;20034;-79
2024/01/26 02:20:07;;;;;;;14.80;3.45;;;;;;;;;;6246323;22;20020;-80
2024/01/26 02:22:34;;;;;;;14.80;3.60;;;;;;;;;;6246703;22;20050;-80
2024/01/26 02:25:01;;;;;;;18.65;3.47;;;;;;;;;;6246462;22;20058;-79
2024/01/26 02:27:28;;;;;;;16.13;4.00;;;;;;;;;;6246044;22;20337;-80
2024/01/26 02:29:54;;;;;;;16.52;3.58;;;;;;;;;;6246426;22;20499;-80
2024/01/26 02:32:21;;;;;;;15.50;3.30;;;;;;;;;;6245883;22;20014;-80
2024/01/26 02:34:48;;;;;;;10.82;3.50;;;;;;;;;;6246780;22;20016;-78
2024/01/26 02:37:15;;;;;;;13.40;3.28;;;;;;;;;;6244293;22;20062;-80
2024/01/26 02:39:41;;;;;;;15.73;3.25;;;;;;;;;;6246578;22;20020;-80
2024/01/26 02:42:08;;;;;;;11.25;2.78;;;;;;;;;;6245978;22;20374;-80
2024/01/26 02:44:35;;;;;;;8.25;2.67;;;;;;;;;;6246327;22;20086;-79
2024/01/26 02:47:02;;;;;;;12.23;3.00;;;;;;;;;;6246353;22;20019;-79
2024/01/26 02:49:31;;;;;;;11.05;3.22;;;;;;;;;;6245993;22;20024;-80
2024/01/26 02:51:58;;;;;;;13.52;3.08;;;;;;;;;;6246384;22;20310;-79
2024/01/26 02:54:25;;;;;;;10.25;3.10;;;;;;;;;;6245797;22;20099;-80
2024/01/26 02:56:52;;;;;;;11.88;3.47;;;;;;;;;;6246466;22;20012;-79
2024/01/26 02:59:20;;;;;;;14.35;3.58;;;;;;;;;;6243967;22;20037;-80
2024/01/26 03:01:47;;;;;;;14.57;3.50;;;;;;;;;;6246327;22;20020;-80
2024/01/26 03:04:14;;;;;;;14.48;3.33;;;;;;;;;;6245724;22;20429;-80
2024/01/26 03:06:41;;;;;;;11.80;2.80;;;;;;;;;;6246369;22;20429;-80
2024/01/26 03:09:08;;;;;;;9.07;2.38;;;;;;;;;;6245764;22;20016;-80
2024/01/26 03:11:42;;;;;;;7.97;2.10;;;;;;;;;;6245969;22;20271;-79
2024/01/26 03:14:09;;;;;;;6.60;1.90;;;;;;;;;;6269462;22;20035;-79
2024/01/26 03:16:39;;;;;;;6.90;2.28;;;;;;;;;;6244749;23;20024;-79
2024/01/26 03:19:07;;;;;;;7.68;2.40;;;;;;;;;;6245516;22;20440;-80
2024/01/26 03:21:44;;;;;;;11.52;2.22;;;;;;;;;;6269821;22;20095;-80
2024/01/26 03:24:11;;;;;;;8.73;2.40;;;;;;;;;;6245495;22;20026;-80
2024/01/26 03:26:38;;;;;;;10.45;2.97;;;;;;;;;;6246331;22;20320;-78
2024/01/26 03:29:06;;;;;;;13.30;3.28;;;;;;;;;;6245556;22;20012;-79
2024/01/26 03:31:33;;;;;;;19.83;3.63;;;;;;;;;;6245895;22;20441;-78
2024/01/26 03:34:00;;;;;;;13.15;3.28;;;;;;;;;;6246158;22;20051;-79
2024/01/26 03:36:28;;;;;;;17.75;4.03;;;;;;;;;;6245337;22;20074;-80
2024/01/26 03:38:54;;;;;;;13.93;4.53;;;;;;;;;;6245863;22;20019;-79
2024/01/26 03:41:21;;;;;;;17.35;4.88;;;;;;;;;;6245231;22;20499;-79
2024/01/26 03:43:51;;;;;;;18.33;4.45;;;;;;;;;;6245508;22;20501;-80
2024/01/26 03:46:20;;;;;;;23.80;4.18;;;;;;;;;;6245194;22;20055;-80
2024/01/26 03:48:47;;;;;;;25.75;5.20;;;;;;;;;;6246003;22;20095;-79
2024/01/26 03:51:15;;;;;;;30.40;5.38;;;;;;;;;;6268967;22;20031;-80
2024/01/26 03:53:42;;;;;;;28.88;6.03;;;;;;;;;;6245955;22;20110;-79
2024/01/26 03:56:08;;;;;;;30.27;5.28;;;;;;;;;;6245474;22;20044;-80
2024/01/26 03:58:35;;;;;;;38.40;5.80;;;;;;;;;;6245734;22;20012;-80
2024/01/26 04:01:02;;;;;;;31.42;5.82;;;;;;;;;;6244056;23;20062;-80
2024/01/26 04:03:28;;;;;;;36.25;6.20;;;;;;;;;;6245204;22;20103;-80
2024/01/26 04:05:55;;;;;;;34.67;6.68;;;;;;;;;;6245841;22;20020;-79
2024/01/26 04:08:22;;;;;;;52.33;6.50;;;;;;;;;;6244996;22;20016;-80
2024/01/26 04:10:49;;;;;;;56.67;7.07;;;;;;;;;;6245720;22;20020;-79
2024/01/26 04:13:15;;;;;;;46.90;6.78;;;;;;;;;;6245152;22;20036;-79
2024/01/26 04:15:44;;;;;;;46.63;6.75;;;;;;;;;;6245611;22;20020;-79
2024/01/26 04:18:11;;;;;;;48.20;7.45;;;;;;;;;;6245244;22;20016;-80
2024/01/26 04:20:38;;;;;;;47.05;7.43;;;;;;;;;;6245760;22;20016;-80
2024/01/26 04:23:05;;;;;;;38.45;7.20;;;;;;;;;;6245031;22;20016;-80
2024/01/26 04:25:32;;;;;;;59.83;6.20;;;;;;;;;;6245535;22;20016;-79
2024/01/26 04:27:58;;;;;;;54.92;6.47;;;;;;;;;;6245599;22;20016;-80
2024/01/26 04:30:25;;;;;;;46.65;6.88;;;;;;;;;;6244435;22;20020;-80
2024/01/26 04:32:52;;;;;;;43.08;5.57;;;;;;;;;;6245699;22;20039;-78
2024/01/26 04:35:19;;;;;;;42.00;5.65;;;;;;;;;;6245054;22;20024;-79
2024/01/26 04:37:46;;;;;;;35.33;5.47;;;;;;;;;;6245654;22;20016;-80
2024/01/26 04:40:13;;;;;;;37.20;6.45;;;;;;;;;;6244969;22;20023;-79
2024/01/26 04:42:40;;;;;;;37.40;6.85;;;;;;;;;;6245652;22;20020;-80
2024/01/26 04:45:06;;;;;;;39.58;5.43;;;;;;;;;;6244973;22;20023;-79
2024/01/26 04:47:34;;;;;;;41.92;6.03;;;;;;;;;;6245687;22;20153;-79
2024/01/26 04:50:00;;;;;;;36.28;6.18;;;;;;;;;;6245631;22;20020;-79
2024/01/26 04:52:28;;;;;;;38.50;6.00;;;;;;;;;;6244707;22;20417;-79
2024/01/26 04:54:55;;;;;;;51.47;6.80;;;;;;;;;;6245709;22;20123;-79
2024/01/26 04:57:22;;;;;;;47.40;6.43;;;;;;;;;;6246649;22;20023;-80
2024/01/26 04:59:48;;;;;;;47.88;7.25;;;;;;;;;;6247626;22;20035;-80
2024/01/26 05:02:15;;;;;;;49.28;6.53;;;;;;;;;;6246934;22;20020;-80
2024/01/26 05:04:42;;;;;;;54.45;7.95;;;;;;;;;;6247511;22;20036;-80
2024/01/26 05:07:09;;;;;;;56.92;6.30;;;;;;;;;;6246674;22;20043;-80
2024/01/26 05:09:36;;;;;;;46.08;6.28;;;;;;;;;;6247027;22;20090;-80
2024/01/26 05:12:03;;;;;;;39.20;6.72;;;;;;;;;;6247259;22;20020;-80
2024/01/26 05:14:29;;;;;;;40.38;5.68;;;;;;;;;;6246802;22;20024;-80
2024/01/26 05:16:56;;;;;;;33.60;4.50;;;;;;;;;;6247561;22;20016;-79
2024/01/26 05:19:23;;;;;;;26.30;3.83;;;;;;;;;;6246673;22;20022;-80
2024/01/26 05:21:50;;;;;;;29.48;3.72;;;;;;;;;;6247313;22;20020;-80
2024/01/26 05:24:16;;;;;;;31.17;3.65;;;;;;;;;;6246694;22;20016;-80
2024/01/26 05:26:43;;;;;;;24.77;2.67;;;;;;;;;;6247388;22;20384;-80
2024/01/26 05:29:10;;;;;;;28.02;3.13;;;;;;;;;;6246543;22;20015;-79
2024/01/26 05:31:41;;;;;;;20.60;3.38;;;;;;;;;;6246879;22;20437;-80
2024/01/26 05:34:08;;;;;;;30.63;2.95;;;;;;;;;;6246798;22;20019;-79
2024/01/26 05:36:42;;;;;;;22.17;2.42;;;;;;;;;;6247216;22;20088;-80
2024/01/26 05:39:10;;;;;;;23.77;3.20;;;;;;;;;;6246569;22;20016;-81
2024/01/26 05:41:37;;;;;;;21.73;2.55;;;;;;;;;;6247047;22;20008;-80
2024/01/26 05:44:04;;;;;;;27.13;3.67;;;;;;;;;;6246614;22;20028;-77
2024/01/26 05:46:31;;;;;;;29.77;3.75;;;;;;;;;;6246849;22;20030;-80
2024/01/26 05:48:58;;;;;;;28.38;3.10;;;;;;;;;;6246934;22;20020;-79
2024/01/26 05:51:25;;;;;;;29.80;3.58;;;;;;;;;;6246083;22;20050;-78
2024/01/26 05:53:53;;;;;;;19.20;3.58;;;;;;;;;;6246927;22;20023;-80
2024/01/26 05:56:21;;;;;;;33.67;4.20;;;;;;;;;;6246378;22;20040;-80
2024/01/26 05:58:48;;;;;;;26.20;2.85;;;;;;;;;;6246852;22;20378;-79
2024/01/26 06:01:15;;;;;;;28.92;3.60;;;;;;;;;;6246298;22;20314;-80
2024/01/26 06:03:42;;;;;;;33.97;3.53;;;;;;;;;;6270764;22;20012;-80
2024/01/26 06:06:09;;;;;;;34.85;3.90;;;;;;;;;;6246282;22;20012;-80
2024/01/26 06:08:39;;;;;;;23.85;3.08;;;;;;;;;;6246274;22;20023;-79
2024/01/26 06:11:10;;;;;;;31.15;2.90;;;;;;;;;;6246093;22;20040;-80
2024/01/26 06:13:36;;;;;;;26.58;3.35;;;;;;;;;;6246816;22;20308;-80
2024/01/26 06:16:03;;;;;;;30.33;3.47;;;;;;;;;;6270171;22;20020;-79
2024/01/26 06:18:30;;;;;;;41.63;7.47;;;;;;;;;;6246635;22;20020;-79
2024/01/26 06:20:57;;;;;;;33.55;4.03;;;;;;;;;;6246786;22;20016;-79
2024/01/26 06:23:24;;;;;;;27.92;4.82;;;;;;;;;;6246111;22;20023;-80
2024/01/26 06:25:51;;;;;;;32.80;3.80;;;;;;;;;;6246424;22;20619;-79
2024/01/26 06:28:18;;;;;;;32.42;4.20;;;;;;;;;;6246022;22;20028;-80
2024/01/26 06:30:45;;;;;;;34.25;3.33;;;;;;;;;;6246774;22;20016;-79
2024/01/26 06:33:11;;;;;;;26.60;3.67;;;;;;;;;;6246147;22;20020;-80
2024/01/26 06:35:38;;;;;;;32.50;4.40;;;;;;;;;;6246735;22;20020;-79
2024/01/26 06:38:05;;;;;;;42.33;3.63;;;;;;;;;;6245780;22;21181;-80
2024/01/26 06:40:32;;;;;;;24.73;3.75;;;;;;;;;;6246249;22;20433;-79
2024/01/26 06:43:05;;;;;;;34.70;4.10;;;;;;;;;;6246650;22;20012;-80
2024/01/26 06:45:33;;;;;;;29.25;5.03;;;;;;;;;;6246280;22;20107;-79
2024/01/26 06:48:00;;;;;;;34.97;4.07;;;;;;;;;;6270291;22;20020;-79
2024/01/26 06:50:27;;;;;;;27.77;5.45;;;;;;;;;;6245788;22;20030;-80
2024/01/26 06:52:54;;;;;;;26.88;3.80;;;;;;;;;;6244829;23;20452;-80
2024/01/26 06:55:21;;;;;;;29.00;3.38;;;;;;;;;;6244520;22;20016;-79
2024/01/26 06:57:47;;;;;;;35.95;4.65;;;;;;;;;;6246606;22;20016;-79
2024/01/26 07:00:14;;;;;;;30.45;4.05;;;;;;;;;;6245720;22;20016;-79
2024/01/26 07:02:41;;;;;;;27.40;4.82;;;;;;;;;;6245110;23;20012;-79
2024/01/26 07:05:08;;;;;;;39.70;6.63;;;;;;;;;;6245019;22;20023;-80
2024/01/26 07:07:35;;;;;;;31.60;6.70;;;;;;;;;;6269652;22;20023;-80
2024/01/26 07:10:02;;;;;;;41.47;5.63;;;;;;;;;;6246289;22;20394;-80
2024/01/26 07:12:28;;;;;;;31.63;6.05;;;;;;;;;;6245143;22;20024;-79
2024/01/26 07:14:55;;;;;;;40.30;3.88;;;;;;;;;;6245917;22;20020;-80
2024/01/26 07:17:22;;;;;;;39.90;4.82;;;;;;;;;;6245513;22;20084;-79
2024/01/26 07:19:48;;;;;;;35.60;5.20;;;;;;;;;;6246085;22;20012;-79
2024/01/26 07:22:15;;;;;;;43.03;4.70;;;;;;;;;;6245711;22;20020;-79
2024/01/26 07:24:42;;;;;;;29.65;4.10;;;;;;;;;;6245840;22;20043;-80
2024/01/26 07:27:09;;;;;;;37.08;6.45;;;;;;;;;;6245160;22;20016;-80
2024/01/26 07:29:35;;;;;;;39.58;6.50;;;;;;;;;;6246259;22;20024;-79
2024/01/26 07:32:02;;;;;;;32.28;4.53;;;;;;;;;;6245731;22;20476;-79
2024/01/26 07:34:29;;;;;;;29.90;3.50;;;;;;;;;;6245310;22;20034;-79
2024/01/26 07:36:57;;;;;;;29.48;3.72;;;;;;;;;;6245973;22;20030;-80
2024/01/26 07:39:26;;;;;;;29.10;4.43;;;;;;;;;;6245503;22;20492;-80
2024/01/26 07:41:53;;;;;;;;;;;;;;;;;;6246466;22;20066;-79
2024/01/26 07:44:20;;;;;;;32.63;4.85;;;;;;;;;;6244776;22;19915;-79
2024/01/26 07:46:47;;;;;;;47.67;4.93;;;;;;;;;;6245958;22;20040;-79
2024/01/26 07:49:13;;;;;;;38.30;5.10;;;;;;;;;;6245298;22;20111;-80
2024/01/26 07:51:40;;;;;;;23.42;3.97;;;;;;;;;;6245514;22;20502;-80
2024/01/26 07:54:07;;;;;;;28.20;3.60;;;;;;;;;;6245123;22;20020;-79
2024/01/26 07:56:34;;;;;;;31.33;4.03;;;;;;;;;;6246055;22;20015;-79
2024/01/26 07:59:01;;;;;;;25.60;3.67;;;;;;;;;;6245744;22;20074;-79
2024/01/26 08:01:28;;;;;;;35.60;4.80;;;;;;;;;;6244656;22;20028;-79
2024/01/26 08:03:55;;;;;;;31.45;4.30;;;;;;;;;;6245561;22;20041;-80
2024/01/26 08:06:22;;;;;;;37.70;4.63;;;;;;;;;;6245120;22;20019;-79
2024/01/26 08:08:49;;;;;;;32.00;4.57;;;;;;;;;;6245858;22;20012;-80
2024/01/26 08:11:19;;;;;;;25.63;3.25;;;;;;;;;;6244769;22;20047;-79
2024/01/26 08:13:46;;;;;;;39.72;4.35;;;;;;;;;;6245642;22;20307;-79
2024/01/26 08:16:16;;;;;;;28.83;3.58;;;;;;;;;;6244990;22;20095;-83
2024/01/26 08:18:43;;;;;;;23.10;3.30;;;;;;;;;;6243828;23;20091;-83
2024/01/26 08:21:10;;;;;;;35.90;4.45;;;;;;;;;;6268523;22;20333;-81
2024/01/26 08:23:37;;;;;;;27.67;4.28;;;;;;;;;;6245248;22;20456;-79
2024/01/26 08:26:05;;;;;;;37.03;5.10;;;;;;;;;;6243467;22;20332;-80
2024/01/26 08:28:32;;;;;;;36.10;5.43;;;;;;;;;;6243777;22;20082;-79
2024/01/26 08:30:59;;;;;;;32.40;5.15;;;;;;;;;;6243231;22;20023;-79
2024/01/26 08:33:25;;;;;;;41.33;4.93;;;;;;;;;;6243425;22;20103;-79
2024/01/26 08:35:53;;;;;;;28.00;4.32;;;;;;;;;;6243747;22;20089;-80
2024/01/26 08:38:20;;;;;;;44.65;5.00;;;;;;;;;;6243181;22;20018;-80
2024/01/26 08:40:47;;;;;;;32.63;5.60;;;;;;;;;;6244015;22;20107;-80
2024/01/26 08:43:13;;;;;;;37.88;4.68;;;;;;;;;;6243299;22;20441;-80
2024/01/26 08:45:40;;;;;;;37.80;4.68;;;;;;;;;;6243218;22;20079;-80
2024/01/26 08:48:07;;;;;;;34.33;5.15;;;;;;;;;;6242733;22;20034;-80
2024/01/26 08:50:36;;;;;;;38.53;5.00;;;;;;;;;;6243517;22;20043;-80
2024/01/26 08:53:03;;;;;;;35.72;4.97;;;;;;;;;;6267626;22;20070;-79
2024/01/26 08:55:30;;;;;;;37.10;5.18;;;;;;;;;;6243389;22;20023;-80
2024/01/26 08:57:57;;;;;;;41.22;4.95;;;;;;;;;;6242404;22;20070;-80
2024/01/26 09:00:23;;;;;;;35.20;4.45;;;;;;;;;;6242848;22;20043;-80
2024/01/26 09:02:50;;;;;;;45.72;6.70;;;;;;;;;;6243732;22;20016;-79
2024/01/26 09:05:17;;;;;;;43.95;7.78;;;;;;;;;;6243042;22;20370;-80
2024/01/26 09:07:44;;;;;;;46.22;5.68;;;;;;;;;;6243293;22;20012;-80
2024/01/26 09:10:11;;;;;;;48.00;5.40;;;;;;;;;;6243140;22;20327;-79
2024/01/26 09:12:38;;;;;;;38.28;4.60;;;;;;;;;;6241798;22;20102;-80
2024/01/26 09:15:05;;;;;;;39.35;5.38;;;;;;;;;;6243349;22;20019;-80
2024/01/26 09:17:32;;;;;;;41.97;5.32;;;;;;;;;;6242809;22;20334;-79
2024/01/26 09:19:58;;;;;;;37.42;4.90;;;;;;;;;;6243411;22;20091;-80
2024/01/26 09:22:27;;;;;;;41.22;4.47;;;;;;;;;;6242491;22;20386;-78
2024/01/26 09:24:54;;;;;;;45.90;5.60;;;;;;;;;;6243672;22;20020;-79
2024/01/26 09:27:21;;;;;;;31.58;4.15;;;;;;;;;;6242487;22;21448;-79
2024/01/26 09:29:48;;;;;;;47.20;5.00;;;;;;;;;;6243377;22;20027;-79
2024/01/26 09:32:15;;;;;;;44.53;5.43;;;;;;;;;;6242853;22;20268;-80
2024/01/26 09:34:44;;;;;;;40.40;6.00;;;;;;;;;;6243498;22;20047;-79
2024/01/26 09:37:11;;;;;;;36.53;6.22;;;;;;;;;;6242363;22;20024;-80
2024/01/26 09:39:37;;;;;;;50.50;6.55;;;;;;;;;;6243287;22;20449;-79
2024/01/26 09:42:05;;;;;;;45.38;5.63;;;;;;;;;;6242280;22;20521;-77
2024/01/26 09:44:32;;;;;;;41.15;4.88;;;;;;;;;;6244532;22;20023;-79
2024/01/26 09:47:01;;;;;;;42.17;6.03;;;;;;;;;;6245169;22;20030;-78
2024/01/26 09:49:29;;;;;;;32.85;4.53;;;;;;;;;;6242942;23;20031;-80
2024/01/26 09:51:56;;;;;;;37.35;4.55;;;;;;;;;;6244358;22;20439;-80
2024/01/26 09:54:23;;;;;;;43.03;5.80;;;;;;;;;;6242796;22;20447;-80
2024/01/26 09:56:51;;;;;;;42.13;5.47;;;;;;;;;;6267523;22;20022;-80
2024/01/26 09:59:18;;;;;;;44.30;5.80;;;;;;;;;;6244531;22;20091;-79
2024/01/26 10:01:46;;;;;;;42.65;5.53;;;;;;;;;;6243953;22;20099;-79
2024/01/26 10:04:13;;;;;;;28.73;5.40;;;;;;;;;;6244365;22;20022;-79
2024/01/26 10:06:40;;;;;;;42.33;5.63;;;;;;;;;;6244716;22;20023;-79
2024/01/26 10:09:10;;;;;;;40.75;5.25;;;;;;;;;;6244494;22;20026;-78
2024/01/26 10:11:36;;;;;;;38.38;4.97;;;;;;;;;;6243408;23;20104;-79
2024/01/26 10:14:03;;;;;;;30.92;4.88;;;;;;;;;;6244966;22;20024;-79
2024/01/26 10:16:30;;;;;;;45.00;6.68;;;;;;;;;;6244666;22;20491;-80
2024/01/26 10:18:57;;;;;;;42.63;5.32;;;;;;;;;;6245020;22;20091;-79
2024/01/26 10:21:24;;;;;;;31.38;4.60;;;;;;;;;;6244022;22;20082;-79
2024/01/26 10:23:52;;;;;;;36.00;5.00;;;;;;;;;;6245112;22;20412;-79
2024/01/26 10:26:19;;;;;;;42.05;5.25;;;;;;;;;;6244072;22;20019;-79
2024/01/26 10:28:48;;;;;;;43.17;4.60;;;;;;;;;;6268229;22;20044;-78
2024/01/26 10:31:15;;;;;;;40.83;5.95;;;;;;;;;;6244476;22;20063;-80
2024/01/26 10:33:45;;;;;;;37.63;4.53;;;;;;;;;;6243410;23;20024;-78
2024/01/26 10:36:13;;;;;;;28.20;4.25;;;;;;;;;;6244555;22;20027;-79
2024/01/26 10:38:41;;;;;;;32.88;4.53;;;;;;;;;;6244625;22;20370;-79
2024/01/26 10:41:14;;;;;;;50.63;5.95;;;;;;;;;;6243869;22;20066;-79
2024/01/26 10:43:44;;;;;;;29.27;4.28;;;;;;;;;;6243200;23;20020;-79
2024/01/26 10:46:11;;;;;;;30.67;4.88;;;;;;;;;;6241611;22;20035;-79
2024/01/26 10:48:38;;;;;;;43.95;4.80;;;;;;;;;;6243337;22;20026;-79
2024/01/26 10:51:05;;;;;;;43.90;5.47;;;;;;;;;;6244215;22;20040;-79
2024/01/26 10:53:33;;;;;;;41.05;5.47;;;;;;;;;;6242527;23;20083;-79
2024/01/26 10:56:03;;;;;;;32.30;4.65;;;;;;;;;;6244788;22;20546;-79
2024/01/26 10:58:30;;;;;;;31.52;4.68;;;;;;;;;;6244484;22;20095;-79
2024/01/26 11:00:57;;;;;;;33.80;5.13;;;;;;;;;;6244377;22;20336;-79
2024/01/26 11:03:24;;;;;;;28.80;4.10;;;;;;;;;;6241448;22;20024;-79
2024/01/26 11:05:52;;;;;;;33.17;4.97;;;;;;;;;;6242225;22;20023;-79
2024/01/26 11:08:24;;;;;;;39.17;5.75;;;;;;;;;;6241583;22;20016;-79
2024/01/26 11:10:54;;;;;;;29.52;5.28;;;;;;;;;;6241370;22;20077;-80
2024/01/26 11:13:23;;;;;;;37.35;5.28;;;;;;;;;;6241342;22;20016;-79
2024/01/26 11:15:49;;;;;;;39.58;5.18;;;;;;;;;;6241892;22;20024;-80
2024/01/26 11:18:26;;;;;;;29.10;4.72;;;;;;;;;;6241998;22;20016;-79
2024/01/26 11:20:53;;;;;;;26.95;4.50;;;;;;;;;;6242241;22;20074;-80
2024/01/26 11:23:21;;;;;;;29.17;4.45;;;;;;;;;;6242133;22;20070;-79
2024/01/26 11:25:53;;;;;;;25.80;4.18;;;;;;;;;;6244182;22;20032;-78
2024/01/26 11:28:27;;;;;;;26.77;4.45;;;;;;;;;;6243930;22;20094;-78
2024/01/26 11:30:58;;;;;;;23.25;3.85;;;;;;;;;;6244558;22;20020;-79
2024/01/26 11:33:34;;;;;;;23.67;3.67;;;;;;;;;;6243662;22;20326;-79
2024/01/26 11:36:05;;;;;;;22.40;4.60;;;;;;;;;;6244469;22;20020;-79
2024/01/26 11:38:32;;;;;;;26.88;4.00;;;;;;;;;;6243410;22;20024;-82
2024/01/26 11:41:00;;;;;;;31.20;4.40;;;;;;;;;;6242502;23;20016;-85
2024/01/26 11:43:29;;;;;;;22.42;3.88;;;;;;;;;;6267241;22;20456;-81
2024/01/26 11:45:57;;;;;;;24.25;3.65;;;;;;;;;;6243970;22;20024;-81
2024/01/26 11:48:24;;;;;;;26.95;4.80;;;;;;;;;;6243677;22;20026;-81
2024/01/26 11:50:52;;;;;;;31.05;4.00;;;;;;;;;;6244421;22;20047;-80
2024/01/26 11:53:21;;;;;;;28.75;3.65;;;;;;;;;;6243484;22;20016;-78
2024/01/26 11:55:50;;;;;;;27.20;3.97;;;;;;;;;;6244456;22;20016;-78
2024/01/26 11:58:18;;;;;;;28.02;3.25;;;;;;;;;;6243743;22;20016;-78
2024/01/26 12:00:45;;;;;;;31.02;4.28;;;;;;;;;;6244184;22;20016;-78
2024/01/26 12:03:16;;;;;;;27.85;3.85;;;;;;;;;;6243595;22;20020;-77
2024/01/26 12:05:43;;;;;;;22.42;3.95;;;;;;;;;;6267440;22;20389;-78
2024/01/26 12:08:11;;;;;;;27.67;3.88;;;;;;;;;;6243506;22;20020;-77
2024/01/26 12:10:39;;;;;;;30.42;3.67;;;;;;;;;;6244146;22;20016;-77
2024/01/26 12:13:06;;;;;;;30.65;4.07;;;;;;;;;;6243602;22;20016;-77
2024/01/26 12:15:39;;;;;;;23.63;3.60;;;;;;;;;;6244449;22;20016;-82
2024/01/26 12:18:10;;;;;;;23.73;3.83;;;;;;;;;;6243915;22;20016;-79
2024/01/26 12:20:38;;;;;;;24.40;5.03;;;;;;;;;;6243870;22;20311;-78
2024/01/26 12:23:17;;;;;;;22.48;3.50;;;;;;;;;;6243556;22;20731;-78
2024/01/26 12:25:44;;;;;;;36.42;4.25;;;;;;;;;;6243693;22;20459;-78
2024/01/26 12:28:11;;;;;;;25.38;3.95;;;;;;;;;;6243002;22;20016;-78
2024/01/26 12:30:38;;;;;;;20.33;3.47;;;;;;;;;;6243508;22;20461;-78
2024/01/26 12:33:06;;;;;;;28.80;4.18;;;;;;;;;;6243888;22;20023;-78
2024/01/26 12:35:40;;;;;;;22.48;3.45;;;;;;;;;;6242483;22;20023;-78
2024/01/26 12:38:07;;;;;;;30.33;3.55;;;;;;;;;;6242246;22;20018;-78
2024/01/26 12:40:34;;;;;;;23.40;3.67;;;;;;;;;;6240452;23;20027;-78
2024/01/26 12:43:02;;;;;;;27.15;4.00;;;;;;;;;;6243195;22;20046;-78
2024/01/26 12:45:29;;;;;;;19.00;3.42;;;;;;;;;;6244093;22;20036;-78
2024/01/26 12:47:55;;;;;;;25.25;3.40;;;;;;;;;;6245682;22;20349;-78
2024/01/26 12:50:24;;;;;;;19.20;3.22;;;;;;;;;;6244954;22;20012;-79
2024/01/26 12:52:51;;;;;;;25.90;3.65;;;;;;;;;;6245507;22;20443;-78
2024/01/26 12:55:18;;;;;;;21.95;2.92;;;;;;;;;;6244863;22;20025;-78
2024/01/26 12:57:45;;;;;;;31.40;4.18;;;;;;;;;;6245497;22;20022;-77
2024/01/26 13:00:12;;;;;;;22.00;3.05;;;;;;;;;;6244750;22;20012;-80
2024/01/26 13:02:39;;;;;;;27.17;3.65;;;;;;;;;;6245104;22;20028;-81
2024/01/26 13:05:08;;;;;;;23.70;3.83;;;;;;;;;;6245068;22;20020;-81
2024/01/26 13:07:35;;;;;;;42.53;4.82;;;;;;;;;;6245377;22;20074;-80
2024/01/26 13:10:03;;;;;;;22.38;3.20;;;;;;;;;;6245608;22;20016;-79
2024/01/26 13:12:30;;;;;;;23.30;3.20;;;;;;;;;;6244697;22;20023;-80
2024/01/26 13:14:57;;;;;;;20.60;3.13;;;;;;;;;;6245492;22;20020;-79
2024/01/26 13:17:25;;;;;;;18.33;3.17;;;;;;;;;;6245679;22;20054;-82
2024/01/26 13:19:52;;;;;;;22.95;4.20;;;;;;;;;;6270585;22;20027;-79
2024/01/26 13:22:33;;;;;;;23.58;3.92;;;;;;;;;;6246399;22;20027;-78
2024/01/26 13:25:01;;;;;;;21.70;3.33;;;;;;;;;;6247057;22;20079;-79
2024/01/26 13:27:27;;;;;;;24.10;3.70;;;;;;;;;;6246583;22;20078;-78
2024/01/26 13:29:54;;;;;;;23.30;3.22;;;;;;;;;;6247195;22;20566;-79
2024/01/26 13:32:21;;;;;;;14.25;2.60;;;;;;;;;;6246620;22;20016;-78
2024/01/26 13:34:48;;;;;;;18.92;3.13;;;;;;;;;;6247251;22;20039;-77
2024/01/26 13:37:15;;;;;;;23.23;3.58;;;;;;;;;;6246604;22;20102;-78
2024/01/26 13:39:42;;;;;;;19.60;3.03;;;;;;;;;;6246566;22;20035;-82
2024/01/26 13:42:10;;;;;;;18.77;3.78;;;;;;;;;;6219970;22;20078;-78
2024/01/26 13:44:36;;;;;;;25.02;3.50;;;;;;;;;;6246990;22;20083;-77
2024/01/26 13:47:04;;;;;;;17.08;3.55;;;;;;;;;;6247024;22;20013;-77
2024/01/26 13:49:30;;;;;;;26.52;3.40;;;;;;;;;;6246751;22;20046;-79
2024/01/26 13:51:57;;;;;;;31.50;4.25;;;;;;;;;;6247032;22;20024;-78
2024/01/26 13:54:24;;;;;;;20.77;3.10;;;;;;;;;;6246068;22;20015;-77
2024/01/26 13:56:54;;;;;;;21.60;3.60;;;;;;;;;;6246830;22;20039;-77
2024/01/26 13:59:21;;;;;;;24.40;3.45;;;;;;;;;;6246224;22;20508;-76
2024/01/26 14:01:48;;;;;;;27.50;3.70;;;;;;;;;;6247036;22;20019;-76
2024/01/26 14:04:15;;;;;;;24.52;4.35;;;;;;;;;;6246253;22;20039;-76
2024/01/26 14:06:42;;;;;;;21.95;3.40;;;;;;;;;;6247213;22;20063;-76
2024/01/26 14:09:09;;;;;;;16.40;2.72;;;;;;;;;;6246343;22;20071;-76
2024/01/26 14:11:36;;;;;;;20.58;3.35;;;;;;;;;;6246915;22;20008;-75
2024/01/26 14:14:05;;;;;;;22.73;3.40;;;;;;;;;;6246833;22;20012;-76
2024/01/26 14:16:33;;;;;;;21.20;3.65;;;;;;;;;;6246767;22;20074;-76
2024/01/26 14:18:59;;;;;;;24.88;4.05;;;;;;;;;;6247000;22;20023;-76
2024/01/26 14:21:27;;;;;;;21.42;3.50;;;;;;;;;;6246079;22;20074;-77
2024/01/26 14:23:53;;;;;;;20.55;3.40;;;;;;;;;;6246855;22;20317;-76
2024/01/26 14:26:23;;;;;;;15.30;2.42;;;;;;;;;;6246329;22;20019;-76
2024/01/26 14:28:51;;;;;;;20.00;3.10;;;;;;;;;;6246261;22;20012;-76
2024/01/26 14:31:19;;;;;;;26.75;3.97;;;;;;;;;;6246134;22;20076;-77